sensor_id;sensor_type;location;lat;lon;timestamp;temperature;humidity
69546;SHT31;56766;52.260;20.746;2024-01-30T00:00:04;0.32;91.34
69546;SHT31;56766;52.260;20.746;2024-01-30T00:02:32;0.30;91.38
69546;SHT31;56766;52.260;20.746;2024-01-30T00:05:00;0.30;91.40
69546;SHT31;56766;52.260;20.746;2024-01-30T00:07:26;0.30;91.40
69546;SHT31;56766;52.260;20.746;2024-01-30T00:09:52;0.29;91.38
69546;SHT31;56766;52.260;20.746;2024-01-30T00:12:18;0.28;91.40
69546;SHT31;56766;52.260;20.746;2024-01-30T00:14:44;0.27;91.40
69546;SHT31;56766;52.260;20.746;2024-01-30T00:17:11;0.26;91.37
69546;SHT31;56766;52.260;20.746;2024-01-30T00:19:37;0.25;91.31
69546;SHT31;56766;52.260;20.746;2024-01-30T00:22:03;0.23;91.29
69546;SHT31;56766;52.260;20.746;2024-01-30T00:24:29;0.20;91.29
69546;SHT31;56766;52.260;20.746;2024-01-30T00:26:55;0.18;91.30
69546;SHT31;56766;52.260;20.746;2024-01-30T00:29:21;0.16;91.29
69546;SHT31;56766;52.260;20.746;2024-01-30T00:31:48;0.13;91.30
69546;SHT31;56766;52.260;20.746;2024-01-30T00:34:14;0.11;91.30
69546;SHT31;56766;52.260;20.746;2024-01-30T00:36:40;0.07;91.28
69546;SHT31;56766;52.260;20.746;2024-01-30T00:39:06;0.06;91.30
69546;SHT31;56766;52.260;20.746;2024-01-30T00:41:34;0.03;91.30
69546;SHT31;56766;52.260;20.746;2024-01-30T00:44:00;-0.00;91.30
69546;SHT31;56766;52.260;20.746;2024-01-30T00:46:26;-0.02;91.30
69546;SHT31;56766;52.260;20.746;2024-01-30T00:48:52;-0.05;91.30
69546;SHT31;56766;52.260;20.746;2024-01-30T00:51:18;-0.09;91.30
69546;SHT31;56766;52.260;20.746;2024-01-30T00:53:45;-0.12;91.30
69546;SHT31;56766;52.260;20.746;2024-01-30T00:56:11;-0.16;91.31
69546;SHT31;56766;52.260;20.746;2024-01-30T00:58:37;-0.19;91.30
69546;SHT31;56766;52.260;20.746;2024-01-30T01:01:03;-0.21;91.30
69546;SHT31;56766;52.260;20.746;2024-01-30T01:03:30;-0.24;91.33
69546;SHT31;56766;52.260;20.746;2024-01-30T01:05:56;-0.28;91.36
69546;SHT31;56766;52.260;20.746;2024-01-30T01:08:22;-0.30;91.40
69546;SHT31;56766;52.260;20.746;2024-01-30T01:10:48;-0.32;91.40
69546;SHT31;56766;52.260;20.746;2024-01-30T01:13:14;-0.36;91.40
69546;SHT31;56766;52.260;20.746;2024-01-30T01:15:40;-0.42;91.40
69546;SHT31;56766;52.260;20.746;2024-01-30T01:18:06;-0.44;91.42
69546;SHT31;56766;52.260;20.746;2024-01-30T01:20:32;-0.49;91.42
69546;SHT31;56766;52.260;20.746;2024-01-30T01:22:58;-0.54;91.43
69546;SHT31;56766;52.260;20.746;2024-01-30T01:25:24;-0.56;91.49
69546;SHT31;56766;52.260;20.746;2024-01-30T01:27:50;-0.59;91.50
69546;SHT31;56766;52.260;20.746;2024-01-30T01:30:19;-0.63;91.53
69546;SHT31;56766;52.260;20.746;2024-01-30T01:32:48;-0.64;91.60
69546;SHT31;56766;52.260;20.746;2024-01-30T01:35:22;-0.67;91.59
69546;SHT31;56766;52.260;20.746;2024-01-30T01:37:51;-0.67;91.60
69546;SHT31;56766;52.260;20.746;2024-01-30T01:40:27;-0.70;91.61
69546;SHT31;56766;52.260;20.746;2024-01-30T01:42:55;-0.71;91.67
69546;SHT31;56766;52.260;20.746;2024-01-30T01:45:21;-0.71;91.71
69546;SHT31;56766;52.260;20.746;2024-01-30T01:47:51;-0.72;91.70
69546;SHT31;56766;52.260;20.746;2024-01-30T01:50:18;-0.73;91.74
69546;SHT31;56766;52.260;20.746;2024-01-30T01:52:47;-0.74;91.80
69546;SHT31;56766;52.260;20.746;2024-01-30T01:55:15;-0.74;91.80
69546;SHT31;56766;52.260;20.746;2024-01-30T01:57:44;-0.75;91.80
69546;SHT31;56766;52.260;20.746;2024-01-30T02:00:12;-0.75;91.88
69546;SHT31;56766;52.260;20.746;2024-01-30T02:02:39;-0.75;91.90
69546;SHT31;56766;52.260;20.746;2024-01-30T02:05:06;-0.75;91.90
69546;SHT31;56766;52.260;20.746;2024-01-30T02:07:32;-0.74;91.96
69546;SHT31;56766;52.260;20.746;2024-01-30T02:09:58;-0.74;91.99
69546;SHT31;56766;52.260;20.746;2024-01-30T02:12:24;-0.73;92.00
69546;SHT31;56766;52.260;20.746;2024-01-30T02:14:50;-0.72;92.00
69546;SHT31;56766;52.260;20.746;2024-01-30T02:17:16;-0.74;92.00
69546;SHT31;56766;52.260;20.746;2024-01-30T02:19:43;-0.74;92.00
69546;SHT31;56766;52.260;20.746;2024-01-30T02:22:09;-0.75;92.00
69546;SHT31;56766;52.260;20.746;2024-01-30T02:24:35;-0.75;92.00
69546;SHT31;56766;52.260;20.746;2024-01-30T02:27:02;-0.77;92.00
69546;SHT31;56766;52.260;20.746;2024-01-30T02:29:28;-0.76;92.00
69546;SHT31;56766;52.260;20.746;2024-01-30T02:31:54;-0.77;92.00
69546;SHT31;56766;52.260;20.746;2024-01-30T02:34:20;-0.78;92.00
69546;SHT31;56766;52.260;20.746;2024-01-30T02:36:46;-0.79;92.00
69546;SHT31;56766;52.260;20.746;2024-01-30T02:39:12;-0.80;92.00
69546;SHT31;56766;52.260;20.746;2024-01-30T02:41:38;-0.82;92.00
69546;SHT31;56766;52.260;20.746;2024-01-30T02:44:04;-0.83;92.00
69546;SHT31;56766;52.260;20.746;2024-01-30T02:46:30;-0.85;92.00
69546;SHT31;56766;52.260;20.746;2024-01-30T02:48:57;-0.87;92.00
69546;SHT31;56766;52.260;20.746;2024-01-30T02:51:23;-0.88;92.01
69546;SHT31;56766;52.260;20.746;2024-01-30T02:53:49;-0.88;92.00
69546;SHT31;56766;52.260;20.746;2024-01-30T02:56:15;-0.89;92.01
69546;SHT31;56766;52.260;20.746;2024-01-30T02:58:41;-0.90;92.03
69546;SHT31;56766;52.260;20.746;2024-01-30T03:01:07;-0.88;92.10
69546;SHT31;56766;52.260;20.746;2024-01-30T03:03:33;-0.88;92.10
69546;SHT31;56766;52.260;20.746;2024-01-30T03:06:01;-0.87;92.10
69546;SHT31;56766;52.260;20.746;2024-01-30T03:08:28;-0.87;92.10
69546;SHT31;56766;52.260;20.746;2024-01-30T03:10:54;-0.86;92.19
69546;SHT31;56766;52.260;20.746;2024-01-30T03:13:21;-0.85;92.20
69546;SHT31;56766;52.260;20.746;2024-01-30T03:15:49;-0.83;92.20
69546;SHT31;56766;52.260;20.746;2024-01-30T03:18:15;-0.83;92.20
69546;SHT31;56766;52.260;20.746;2024-01-30T03:20:41;-0.83;92.19
69546;SHT31;56766;52.260;20.746;2024-01-30T03:23:07;-0.84;92.19
69546;SHT31;56766;52.260;20.746;2024-01-30T03:25:33;-0.85;92.17
69546;SHT31;56766;52.260;20.746;2024-01-30T03:27:59;-0.84;92.20
69546;SHT31;56766;52.260;20.746;2024-01-30T03:30:25;-0.84;92.20
69546;SHT31;56766;52.260;20.746;2024-01-30T03:32:51;-0.83;92.20
69546;SHT31;56766;52.260;20.746;2024-01-30T03:35:18;-0.83;92.21
69546;SHT31;56766;52.260;20.746;2024-01-30T03:37:45;-0.83;92.20
69546;SHT31;56766;52.260;20.746;2024-01-30T03:40:11;-0.83;92.21
69546;SHT31;56766;52.260;20.746;2024-01-30T03:42:38;-0.83;92.20
69546;SHT31;56766;52.260;20.746;2024-01-30T03:45:04;-0.83;92.20
69546;SHT31;56766;52.260;20.746;2024-01-30T03:47:31;-0.82;92.26
69546;SHT31;56766;52.260;20.746;2024-01-30T03:49:57;-0.81;92.23
69546;SHT31;56766;52.260;20.746;2024-01-30T03:52:22;-0.82;92.20
69546;SHT31;56766;52.260;20.746;2024-01-30T03:54:49;-0.81;92.20
69546;SHT31;56766;52.260;20.746;2024-01-30T03:57:15;-0.81;92.20
69546;SHT31;56766;52.260;20.746;2024-01-30T03:59:44;-0.82;92.20
69546;SHT31;56766;52.260;20.746;2024-01-30T04:02:11;-0.83;92.20
69546;SHT31;56766;52.260;20.746;2024-01-30T04:04:37;-0.83;92.20
69546;SHT31;56766;52.260;20.746;2024-01-30T04:07:03;-0.85;92.20
69546;SHT31;56766;52.260;20.746;2024-01-30T04:09:29;-0.85;92.19
69546;SHT31;56766;52.260;20.746;2024-01-30T04:11:55;-0.87;92.18
69546;SHT31;56766;52.260;20.746;2024-01-30T04:14:21;-0.89;92.18
69546;SHT31;56766;52.260;20.746;2024-01-30T04:16:47;-0.88;92.19
69546;SHT31;56766;52.260;20.746;2024-01-30T04:19:13;-0.89;92.19
69546;SHT31;56766;52.260;20.746;2024-01-30T04:21:39;-0.88;92.19
69546;SHT31;56766;52.260;20.746;2024-01-30T04:24:05;-0.88;92.20
69546;SHT31;56766;52.260;20.746;2024-01-30T04:26:31;-0.88;92.20
69546;SHT31;56766;52.260;20.746;2024-01-30T04:28:57;-0.87;92.20
69546;SHT31;56766;52.260;20.746;2024-01-30T04:31:23;-0.87;92.20
69546;SHT31;56766;52.260;20.746;2024-01-30T04:33:49;-0.87;92.20
69546;SHT31;56766;52.260;20.746;2024-01-30T04:36:15;-0.87;92.22
69546;SHT31;56766;52.260;20.746;2024-01-30T04:38:41;-0.87;92.28
69546;SHT31;56766;52.260;20.746;2024-01-30T04:41:07;-0.85;92.29
69546;SHT31;56766;52.260;20.746;2024-01-30T04:43:33;-0.84;92.30
69546;SHT31;56766;52.260;20.746;2024-01-30T04:45:59;-0.82;92.30
69546;SHT31;56766;52.260;20.746;2024-01-30T04:48:25;-0.82;92.30
69546;SHT31;56766;52.260;20.746;2024-01-30T04:50:51;-0.80;92.30
69546;SHT31;56766;52.260;20.746;2024-01-30T04:53:17;-0.80;92.30
69546;SHT31;56766;52.260;20.746;2024-01-30T04:55:43;-0.79;92.30
69546;SHT31;56766;52.260;20.746;2024-01-30T04:58:09;-0.77;92.30
69546;SHT31;56766;52.260;20.746;2024-01-30T05:00:35;-0.76;92.30
69546;SHT31;56766;52.260;20.746;2024-01-30T05:03:01;-0.77;92.29
69546;SHT31;56766;52.260;20.746;2024-01-30T05:05:27;-0.77;92.30
69546;SHT31;56766;52.260;20.746;2024-01-30T05:07:53;-0.74;92.30
69546;SHT31;56766;52.260;20.746;2024-01-30T05:10:19;-0.74;92.30
69546;SHT31;56766;52.260;20.746;2024-01-30T05:12:45;-0.72;92.30
69546;SHT31;56766;52.260;20.746;2024-01-30T05:15:11;-0.71;92.29
69546;SHT31;56766;52.260;20.746;2024-01-30T05:17:37;-0.71;92.30
69546;SHT31;56766;52.260;20.746;2024-01-30T05:20:03;-0.72;92.22
69546;SHT31;56766;52.260;20.746;2024-01-30T05:22:30;-0.72;92.20
69546;SHT31;56766;52.260;20.746;2024-01-30T05:24:56;-0.73;92.20
69546;SHT31;56766;52.260;20.746;2024-01-30T05:27:22;-0.74;92.20
69546;SHT31;56766;52.260;20.746;2024-01-30T05:29:48;-0.74;92.19
69546;SHT31;56766;52.260;20.746;2024-01-30T05:32:15;-0.74;92.19
69546;SHT31;56766;52.260;20.746;2024-01-30T05:34:41;-0.75;92.20
69546;SHT31;56766;52.260;20.746;2024-01-30T05:37:07;-0.76;92.13
69546;SHT31;56766;52.260;20.746;2024-01-30T05:39:33;-0.78;92.10
69546;SHT31;56766;52.260;20.746;2024-01-30T05:41:59;-0.79;92.10
69546;SHT31;56766;52.260;20.746;2024-01-30T05:44:25;-0.79;92.10
69546;SHT31;56766;52.260;20.746;2024-01-30T05:46:52;-0.79;92.10
69546;SHT31;56766;52.260;20.746;2024-01-30T05:49:18;-0.78;92.10
69546;SHT31;56766;52.260;20.746;2024-01-30T05:51:44;-0.79;92.10
69546;SHT31;56766;52.260;20.746;2024-01-30T05:54:10;-0.79;92.10
69546;SHT31;56766;52.260;20.746;2024-01-30T05:56:36;-0.79;92.09
69546;SHT31;56766;52.260;20.746;2024-01-30T05:59:02;-0.79;92.10
69546;SHT31;56766;52.260;20.746;2024-01-30T06:01:27;-0.79;92.08
69546;SHT31;56766;52.260;20.746;2024-01-30T06:03:54;-0.79;92.03
69546;SHT31;56766;52.260;20.746;2024-01-30T06:06:21;-0.79;92.03
69546;SHT31;56766;52.260;20.746;2024-01-30T06:08:47;-0.80;92.00
69546;SHT31;56766;52.260;20.746;2024-01-30T06:11:13;-0.81;91.99
69546;SHT31;56766;52.260;20.746;2024-01-30T06:13:39;-0.85;91.90
69546;SHT31;56766;52.260;20.746;2024-01-30T06:16:05;-0.89;91.84
69546;SHT31;56766;52.260;20.746;2024-01-30T06:18:36;-0.92;91.80
69546;SHT31;56766;52.260;20.746;2024-01-30T06:21:04;-0.94;91.84
69546;SHT31;56766;52.260;20.746;2024-01-30T06:23:30;-0.97;91.81
69546;SHT31;56766;52.260;20.746;2024-01-30T06:25:56;-0.96;91.90
69546;SHT31;56766;52.260;20.746;2024-01-30T06:28:22;-0.97;91.90
69546;SHT31;56766;52.260;20.746;2024-01-30T06:30:48;-0.97;91.90
69546;SHT31;56766;52.260;20.746;2024-01-30T06:33:14;-0.99;91.90
69546;SHT31;56766;52.260;20.746;2024-01-30T06:35:40;-1.00;91.90
69546;SHT31;56766;52.260;20.746;2024-01-30T06:38:06;-1.01;91.90
69546;SHT31;56766;52.260;20.746;2024-01-30T06:40:32;-0.98;91.95
69546;SHT31;56766;52.260;20.746;2024-01-30T06:42:58;-0.95;92.00
69546;SHT31;56766;52.260;20.746;2024-01-30T06:45:24;-0.91;92.00
69546;SHT31;56766;52.260;20.746;2024-01-30T06:47:50;-0.87;92.00
69546;SHT31;56766;52.260;20.746;2024-01-30T06:50:16;-0.81;92.02
69546;SHT31;56766;52.260;20.746;2024-01-30T06:52:42;-0.75;92.07
69546;SHT31;56766;52.260;20.746;2024-01-30T06:55:09;-0.66;92.10
69546;SHT31;56766;52.260;20.746;2024-01-30T06:57:35;-0.57;92.10
69546;SHT31;56766;52.260;20.746;2024-01-30T07:00:02;-0.50;92.10
69546;SHT31;56766;52.260;20.746;2024-01-30T07:02:29;-0.41;92.10
69546;SHT31;56766;52.260;20.746;2024-01-30T07:04:55;-0.36;92.09
69546;SHT31;56766;52.260;20.746;2024-01-30T07:07:21;-0.29;92.07
69546;SHT31;56766;52.260;20.746;2024-01-30T07:09:47;-0.21;92.09
69546;SHT31;56766;52.260;20.746;2024-01-30T07:12:15;-0.09;92.10
69546;SHT31;56766;52.260;20.746;2024-01-30T07:14:41;0.03;92.10
69546;SHT31;56766;52.260;20.746;2024-01-30T07:17:07;0.18;92.10
69546;SHT31;56766;52.260;20.746;2024-01-30T07:19:33;0.38;92.10
69546;SHT31;56766;52.260;20.746;2024-01-30T07:22:00;0.56;92.00
69546;SHT31;56766;52.260;20.746;2024-01-30T07:24:26;0.71;91.91
69546;SHT31;56766;52.260;20.746;2024-01-30T07:26:52;0.86;91.80
69546;SHT31;56766;52.260;20.746;2024-01-30T07:29:18;1.01;91.68
69546;SHT31;56766;52.260;20.746;2024-01-30T07:31:44;1.18;91.54
69546;SHT31;56766;52.260;20.746;2024-01-30T07:34:11;1.30;91.44
69546;SHT31;56766;52.260;20.746;2024-01-30T07:36:37;1.45;91.36
69546;SHT31;56766;52.260;20.746;2024-01-30T07:39:03;1.59;91.21
69546;SHT31;56766;52.260;20.746;2024-01-30T07:41:29;1.71;91.07
69546;SHT31;56766;52.260;20.746;2024-01-30T07:43:55;1.81;90.93
69546;SHT31;56766;52.260;20.746;2024-01-30T07:46:21;1.92;90.78
69546;SHT31;56766;52.260;20.746;2024-01-30T07:48:47;2.02;90.64
69546;SHT31;56766;52.260;20.746;2024-01-30T07:51:14;2.13;90.54
69546;SHT31;56766;52.260;20.746;2024-01-30T07:53:40;2.21;90.43
69546;SHT31;56766;52.260;20.746;2024-01-30T07:56:06;2.33;90.40
69546;SHT31;56766;52.260;20.746;2024-01-30T07:58:32;2.45;90.33
69546;SHT31;56766;52.260;20.746;2024-01-30T08:00:58;2.57;90.21
69546;SHT31;56766;52.260;20.746;2024-01-30T08:03:26;2.70;90.21
69546;SHT31;56766;52.260;20.746;2024-01-30T08:05:52;2.85;90.02
69546;SHT31;56766;52.260;20.746;2024-01-30T08:08:18;2.96;89.81
69546;SHT31;56766;52.260;20.746;2024-01-30T08:10:44;3.08;89.69
69546;SHT31;56766;52.260;20.746;2024-01-30T08:13:10;3.19;89.55
69546;SHT31;56766;52.260;20.746;2024-01-30T08:15:36;3.36;89.49
69546;SHT31;56766;52.260;20.746;2024-01-30T08:18:02;3.53;89.33
69546;SHT31;56766;52.260;20.746;2024-01-30T08:20:28;3.67;88.99
69546;SHT31;56766;52.260;20.746;2024-01-30T08:22:54;3.76;88.75
69546;SHT31;56766;52.260;20.746;2024-01-30T08:25:20;3.86;88.31
69546;SHT31;56766;52.260;20.746;2024-01-30T08:27:47;3.96;87.99
69546;SHT31;56766;52.260;20.746;2024-01-30T08:30:14;4.04;87.78
69546;SHT31;56766;52.260;20.746;2024-01-30T08:32:40;4.16;87.60
69546;SHT31;56766;52.260;20.746;2024-01-30T08:35:07;4.29;87.30
69546;SHT31;56766;52.260;20.746;2024-01-30T08:37:34;4.40;86.93
69546;SHT31;56766;52.260;20.746;2024-01-30T08:40:00;4.48;86.66
69546;SHT31;56766;52.260;20.746;2024-01-30T08:42:28;4.58;86.50
69546;SHT31;56766;52.260;20.746;2024-01-30T08:44:53;4.67;86.24
69546;SHT31;56766;52.260;20.746;2024-01-30T08:47:20;4.78;86.25
69546;SHT31;56766;52.260;20.746;2024-01-30T08:49:46;4.85;85.76
69546;SHT31;56766;52.260;20.746;2024-01-30T08:52:12;4.93;85.84
69546;SHT31;56766;52.260;20.746;2024-01-30T08:54:37;5.00;85.42
69546;SHT31;56766;52.260;20.746;2024-01-30T08:57:04;5.00;85.05
69546;SHT31;56766;52.260;20.746;2024-01-30T08:59:30;5.02;85.03
69546;SHT31;56766;52.260;20.746;2024-01-30T09:01:56;5.07;84.82
69546;SHT31;56766;52.260;20.746;2024-01-30T09:04:24;5.11;84.66
69546;SHT31;56766;52.260;20.746;2024-01-30T09:06:50;5.12;84.43
69546;SHT31;56766;52.260;20.746;2024-01-30T09:09:17;5.12;84.22
69546;SHT31;56766;52.260;20.746;2024-01-30T09:11:44;5.12;84.07
69546;SHT31;56766;52.260;20.746;2024-01-30T09:14:10;5.13;83.92
69546;SHT31;56766;52.260;20.746;2024-01-30T09:16:36;5.16;83.98
69546;SHT31;56766;52.260;20.746;2024-01-30T09:19:02;5.21;83.84
69546;SHT31;56766;52.260;20.746;2024-01-30T09:21:28;5.27;83.79
69546;SHT31;56766;52.260;20.746;2024-01-30T09:24:02;5.33;83.64
69546;SHT31;56766;52.260;20.746;2024-01-30T09:26:32;5.33;83.55
69546;SHT31;56766;52.260;20.746;2024-01-30T09:28:58;5.34;83.70
69546;SHT31;56766;52.260;20.746;2024-01-30T09:31:24;5.43;83.42
69546;SHT31;56766;52.260;20.746;2024-01-30T09:33:50;5.49;83.29
69546;SHT31;56766;52.260;20.746;2024-01-30T09:36:17;5.54;83.29
69546;SHT31;56766;52.260;20.746;2024-01-30T09:38:45;5.62;82.76
69546;SHT31;56766;52.260;20.746;2024-01-30T09:41:12;5.69;82.90
69546;SHT31;56766;52.260;20.746;2024-01-30T09:43:39;5.74;82.85
69546;SHT31;56766;52.260;20.746;2024-01-30T09:46:12;5.78;82.58
69546;SHT31;56766;52.260;20.746;2024-01-30T09:48:41;5.79;82.19
69546;SHT31;56766;52.260;20.746;2024-01-30T09:51:15;5.80;81.86
69546;SHT31;56766;52.260;20.746;2024-01-30T09:53:43;5.84;81.79
69546;SHT31;56766;52.260;20.746;2024-01-30T09:56:12;5.86;81.88
69546;SHT31;56766;52.260;20.746;2024-01-30T09:58:39;5.88;81.79
69546;SHT31;56766;52.260;20.746;2024-01-30T10:01:06;5.93;81.98
69546;SHT31;56766;52.260;20.746;2024-01-30T10:03:33;5.95;81.60
69546;SHT31;56766;52.260;20.746;2024-01-30T10:06:01;5.99;81.40
69546;SHT31;56766;52.260;20.746;2024-01-30T10:08:28;6.02;81.27
69546;SHT31;56766;52.260;20.746;2024-01-30T10:11:00;6.06;81.22
69546;SHT31;56766;52.260;20.746;2024-01-30T10:13:28;6.13;81.02
69546;SHT31;56766;52.260;20.746;2024-01-30T10:15:55;6.20;80.79
69546;SHT31;56766;52.260;20.746;2024-01-30T10:18:22;6.26;80.93
69546;SHT31;56766;52.260;20.746;2024-01-30T10:20:51;6.33;80.64
69546;SHT31;56766;52.260;20.746;2024-01-30T10:23:18;6.44;80.88
69546;SHT31;56766;52.260;20.746;2024-01-30T10:25:45;6.55;80.87
69546;SHT31;56766;52.260;20.746;2024-01-30T10:28:12;6.60;80.31
69546;SHT31;56766;52.260;20.746;2024-01-30T10:30:39;6.65;80.01
69546;SHT31;56766;52.260;20.746;2024-01-30T10:33:05;6.70;79.98
69546;SHT31;56766;52.260;20.746;2024-01-30T10:35:32;6.77;79.85
69546;SHT31;56766;52.260;20.746;2024-01-30T10:38:00;6.80;79.77
69546;SHT31;56766;52.260;20.746;2024-01-30T10:40:29;6.84;80.04
69546;SHT31;56766;52.260;20.746;2024-01-30T10:42:56;6.88;80.12
69546;SHT31;56766;52.260;20.746;2024-01-30T10:45:26;6.96;79.77
69546;SHT31;56766;52.260;20.746;2024-01-30T10:47:55;7.01;79.51
69546;SHT31;56766;52.260;20.746;2024-01-30T10:50:26;7.00;79.70
69546;SHT31;56766;52.260;20.746;2024-01-30T10:52:54;6.97;79.42
69546;SHT31;56766;52.260;20.746;2024-01-30T10:55:22;6.97;79.52
69546;SHT31;56766;52.260;20.746;2024-01-30T10:57:50;7.01;79.56
69546;SHT31;56766;52.260;20.746;2024-01-30T11:00:18;7.11;79.43
69546;SHT31;56766;52.260;20.746;2024-01-30T11:02:50;7.17;79.42
69546;SHT31;56766;52.260;20.746;2024-01-30T11:05:25;7.22;79.52
69546;SHT31;56766;52.260;20.746;2024-01-30T11:07:53;7.24;79.42
69546;SHT31;56766;52.260;20.746;2024-01-30T11:10:25;7.26;79.12
69546;SHT31;56766;52.260;20.746;2024-01-30T11:12:51;7.31;78.93
69546;SHT31;56766;52.260;20.746;2024-01-30T11:15:18;7.38;78.98
69546;SHT31;56766;52.260;20.746;2024-01-30T11:17:51;7.44;78.46
69546;SHT31;56766;52.260;20.746;2024-01-30T11:20:25;7.45;77.99
69546;SHT31;56766;52.260;20.746;2024-01-30T11:23:00;7.51;78.18
69546;SHT31;56766;52.260;20.746;2024-01-30T11:25:32;7.53;77.87
69546;SHT31;56766;52.260;20.746;2024-01-30T11:27:59;7.58;78.02
69546;SHT31;56766;52.260;20.746;2024-01-30T11:30:30;7.61;77.56
69546;SHT31;56766;52.260;20.746;2024-01-30T11:33:02;7.65;77.62
69546;SHT31;56766;52.260;20.746;2024-01-30T11:35:38;7.71;77.57
69546;SHT31;56766;52.260;20.746;2024-01-30T11:38:08;7.71;77.69
69546;SHT31;56766;52.260;20.746;2024-01-30T11:40:41;7.73;78.03
69546;SHT31;56766;52.260;20.746;2024-01-30T11:43:10;7.73;77.36
69546;SHT31;56766;52.260;20.746;2024-01-30T11:45:37;7.72;76.93
69546;SHT31;56766;52.260;20.746;2024-01-30T11:48:06;7.73;76.52
69546;SHT31;56766;52.260;20.746;2024-01-30T11:50:34;7.73;77.36
69546;SHT31;56766;52.260;20.746;2024-01-30T11:53:02;7.73;77.04
69546;SHT31;56766;52.260;20.746;2024-01-30T11:55:31;7.70;77.23
69546;SHT31;56766;52.260;20.746;2024-01-30T11:58:00;7.71;77.00
69546;SHT31;56766;52.260;20.746;2024-01-30T12:00:27;7.73;77.19
69546;SHT31;56766;52.260;20.746;2024-01-30T12:02:55;7.74;76.96
69546;SHT31;56766;52.260;20.746;2024-01-30T12:05:23;7.78;76.71
69546;SHT31;56766;52.260;20.746;2024-01-30T12:07:52;7.79;76.58
69546;SHT31;56766;52.260;20.746;2024-01-30T12:10:19;7.79;76.55
69546;SHT31;56766;52.260;20.746;2024-01-30T12:12:49;7.84;77.16
69546;SHT31;56766;52.260;20.746;2024-01-30T12:15:18;7.84;77.39
69546;SHT31;56766;52.260;20.746;2024-01-30T12:17:52;7.84;76.98
69546;SHT31;56766;52.260;20.746;2024-01-30T12:20:19;7.85;77.12
69546;SHT31;56766;52.260;20.746;2024-01-30T12:22:49;7.88;77.41
69546;SHT31;56766;52.260;20.746;2024-01-30T12:25:18;7.90;77.34
69546;SHT31;56766;52.260;20.746;2024-01-30T12:27:48;7.91;77.15
69546;SHT31;56766;52.260;20.746;2024-01-30T12:30:18;7.92;77.00
69546;SHT31;56766;52.260;20.746;2024-01-30T12:32:49;7.94;76.70
69546;SHT31;56766;52.260;20.746;2024-01-30T12:35:17;7.95;76.12
69546;SHT31;56766;52.260;20.746;2024-01-30T12:37:47;7.97;76.11
69546;SHT31;56766;52.260;20.746;2024-01-30T12:40:15;7.94;76.14
69546;SHT31;56766;52.260;20.746;2024-01-30T12:42:46;7.93;76.46
69546;SHT31;56766;52.260;20.746;2024-01-30T12:45:16;7.93;76.42
69546;SHT31;56766;52.260;20.746;2024-01-30T12:47:52;7.94;76.26
69546;SHT31;56766;52.260;20.746;2024-01-30T12:50:19;7.94;76.41
69546;SHT31;56766;52.260;20.746;2024-01-30T12:52:46;7.93;76.46
69546;SHT31;56766;52.260;20.746;2024-01-30T12:55:12;7.95;76.62
69546;SHT31;56766;52.260;20.746;2024-01-30T12:57:39;7.96;77.12
69546;SHT31;56766;52.260;20.746;2024-01-30T13:00:08;7.97;77.12
69546;SHT31;56766;52.260;20.746;2024-01-30T13:02:35;8.00;76.65
69546;SHT31;56766;52.260;20.746;2024-01-30T13:05:03;8.02;76.73
69546;SHT31;56766;52.260;20.746;2024-01-30T13:07:30;8.02;76.68
69546;SHT31;56766;52.260;20.746;2024-01-30T13:09:58;8.01;75.70
69546;SHT31;56766;52.260;20.746;2024-01-30T13:12:30;8.03;75.68
69546;SHT31;56766;52.260;20.746;2024-01-30T13:15:00;8.04;75.84
69546;SHT31;56766;52.260;20.746;2024-01-30T13:17:28;8.02;76.12
69546;SHT31;56766;52.260;20.746;2024-01-30T13:19:57;7.99;75.47
69546;SHT31;56766;52.260;20.746;2024-01-30T13:22:25;7.96;75.91
69546;SHT31;56766;52.260;20.746;2024-01-30T13:24:53;7.95;75.85
69546;SHT31;56766;52.260;20.746;2024-01-30T13:27:21;7.93;75.59
69546;SHT31;56766;52.260;20.746;2024-01-30T13:29:48;7.94;75.74
69546;SHT31;56766;52.260;20.746;2024-01-30T13:32:14;7.90;75.97
69546;SHT31;56766;52.260;20.746;2024-01-30T13:34:40;7.86;76.13
69546;SHT31;56766;52.260;20.746;2024-01-30T13:37:06;7.82;75.74
69546;SHT31;56766;52.260;20.746;2024-01-30T13:39:32;7.78;76.03
69546;SHT31;56766;52.260;20.746;2024-01-30T13:41:58;7.72;75.84
69546;SHT31;56766;52.260;20.746;2024-01-30T13:44:24;7.64;76.24
69546;SHT31;56766;52.260;20.746;2024-01-30T13:46:51;7.59;75.99
69546;SHT31;56766;52.260;20.746;2024-01-30T13:49:18;7.53;75.66
69546;SHT31;56766;52.260;20.746;2024-01-30T13:51:44;7.47;75.72
69546;SHT31;56766;52.260;20.746;2024-01-30T13:54:10;7.38;75.85
69546;SHT31;56766;52.260;20.746;2024-01-30T13:56:36;7.32;76.11
69546;SHT31;56766;52.260;20.746;2024-01-30T13:59:02;7.25;76.12
69546;SHT31;56766;52.260;20.746;2024-01-30T14:01:32;7.17;76.45
69546;SHT31;56766;52.260;20.746;2024-01-30T14:03:58;7.07;76.62
69546;SHT31;56766;52.260;20.746;2024-01-30T14:06:24;6.99;76.87
69546;SHT31;56766;52.260;20.746;2024-01-30T14:08:50;6.91;77.26
69546;SHT31;56766;52.260;20.746;2024-01-30T14:11:16;6.82;77.52
69546;SHT31;56766;52.260;20.746;2024-01-30T14:13:42;6.73;77.72
69546;SHT31;56766;52.260;20.746;2024-01-30T14:16:08;6.63;77.96
69546;SHT31;56766;52.260;20.746;2024-01-30T14:18:34;6.54;78.26
69546;SHT31;56766;52.260;20.746;2024-01-30T14:21:00;6.46;78.30
69546;SHT31;56766;52.260;20.746;2024-01-30T14:23:26;6.38;78.52
69546;SHT31;56766;52.260;20.746;2024-01-30T14:25:52;6.31;78.79
69546;SHT31;56766;52.260;20.746;2024-01-30T14:28:18;6.24;79.12
69546;SHT31;56766;52.260;20.746;2024-01-30T14:30:44;6.17;79.05
69546;SHT31;56766;52.260;20.746;2024-01-30T14:33:10;6.07;79.32
69546;SHT31;56766;52.260;20.746;2024-01-30T14:35:37;6.00;79.50
69546;SHT31;56766;52.260;20.746;2024-01-30T14:38:03;5.91;79.51
69546;SHT31;56766;52.260;20.746;2024-01-30T14:40:31;5.81;79.72
69546;SHT31;56766;52.260;20.746;2024-01-30T14:42:57;5.71;79.76
69546;SHT31;56766;52.260;20.746;2024-01-30T14:45:23;5.60;79.79
69546;SHT31;56766;52.260;20.746;2024-01-30T14:47:49;5.52;79.99
69546;SHT31;56766;52.260;20.746;2024-01-30T14:50:16;5.41;79.81
69546;SHT31;56766;52.260;20.746;2024-01-30T14:52:43;5.30;79.89
69546;SHT31;56766;52.260;20.746;2024-01-30T14:55:09;5.21;80.05
69546;SHT31;56766;52.260;20.746;2024-01-30T14:57:35;5.15;80.44
69546;SHT31;56766;52.260;20.746;2024-01-30T15:00:01;5.09;80.60
69546;SHT31;56766;52.260;20.746;2024-01-30T15:02:27;5.02;80.75
69546;SHT31;56766;52.260;20.746;2024-01-30T15:04:53;4.96;80.97
69546;SHT31;56766;52.260;20.746;2024-01-30T15:07:20;4.89;81.17
69546;SHT31;56766;52.260;20.746;2024-01-30T15:09:46;4.83;81.09
69546;SHT31;56766;52.260;20.746;2024-01-30T15:12:12;4.76;81.23
69546;SHT31;56766;52.260;20.746;2024-01-30T15:14:38;4.67;81.38
69546;SHT31;56766;52.260;20.746;2024-01-30T15:17:04;4.58;81.27
69546;SHT31;56766;52.260;20.746;2024-01-30T15:19:30;4.49;81.28
69546;SHT31;56766;52.260;20.746;2024-01-30T15:21:56;4.41;81.55